sensor_id;sensor_type;location;lat;lon;timestamp;pressure;altitude;pressure_sealevel;temperature;humidity
10881;BME280;5493;48.884;8.338;2022-08-19T00:01:16;99796.34;;;23.74;100.00
10881;BME280;5493;48.884;8.338;2022-08-19T00:03:44;99814.44;;;23.67;100.00
10881;BME280;5493;48.884;8.338;2022-08-19T00:06:10;99812.47;;;23.59;100.00
10881;BME280;5493;48.884;8.338;2022-08-19T00:08:37;99817.19;;;23.36;100.00
10881;BME280;5493;48.884;8.338;2022-08-19T00:11:04;99809.53;;;23.55;100.00
10881;BME280;5493;48.884;8.338;2022-08-19T00:13:31;99813.31;;;23.68;100.00
10881;BME280;5493;48.884;8.338;2022-08-19T00:15:58;99817.75;;;23.46;100.00
10881;BME280;5493;48.884;8.338;2022-08-19T00:18:26;99821.16;;;23.43;100.00
10881;BME280;5493;48.884;8.338;2022-08-19T00:20:54;99824.91;;;23.56;100.00
10881;BME280;5493;48.884;8.338;2022-08-19T00:23:20;99809.88;;;23.53;100.00
10881;BME280;5493;48.884;8.338;2022-08-19T00:25:47;99815.53;;;23.57;100.00
10881;BME280;5493;48.884;8.338;2022-08-19T00:28:13;99822.00;;;23.52;100.00
10881;BME280;5493;48.884;8.338;2022-08-19T00:30:40;99821.44;;;23.73;100.00
10881;BME280;5493;48.884;8.338;2022-08-19T00:33:07;99828.72;;;23.69;100.00
10881;BME280;5493;48.884;8.338;2022-08-19T00:35:33;99827.56;;;23.70;100.00
10881;BME280;5493;48.884;8.338;2022-08-19T00:38:01;99820.31;;;23.74;100.00
10881;BME280;5493;48.884;8.338;2022-08-19T00:40:28;99825.34;;;23.80;100.00
10881;BME280;5493;48.884;8.338;2022-08-19T00:42:55;99824.63;;;23.66;100.00
10881;BME280;5493;48.884;8.338;2022-08-19T00:45:24;99824.81;;;23.70;100.00
10881;BME280;5493;48.884;8.338;2022-08-19T00:47:51;99815.94;;;23.73;100.00
10881;BME280;5493;48.884;8.338;2022-08-19T00:50:20;99796.84;;;23.76;100.00
10881;BME280;5493;48.884;8.338;2022-08-19T00:52:49;99787.44;;;23.77;100.00
10881;BME280;5493;48.884;8.338;2022-08-19T00:55:21;99784.50;;;23.74;100.00
10881;BME280;5493;48.884;8.338;2022-08-19T00:57:51;99794.88;;;23.77;100.00
10881;BME280;5493;48.884;8.338;2022-08-19T01:00:20;99796.00;;;23.67;100.00
10881;BME280;5493;48.884;8.338;2022-08-19T01:02:47;99822.06;;;23.70;100.00
10881;BME280;5493;48.884;8.338;2022-08-19T01:05:16;99827.50;;;23.52;100.00
10881;BME280;5493;48.884;8.338;2022-08-19T01:07:46;99830.75;;;23.55;100.00
10881;BME280;5493;48.884;8.338;2022-08-19T01:10:17;99828.22;;;23.67;100.00
10881;BME280;5493;48.884;8.338;2022-08-19T01:12:48;99824.38;;;23.76;100.00
10881;BME280;5493;48.884;8.338;2022-08-19T01:15:18;99818.06;;;23.76;100.00
10881;BME280;5493;48.884;8.338;2022-08-19T01:17:46;99810.63;;;23.85;100.00
10881;BME280;5493;48.884;8.338;2022-08-19T01:20:16;99805.28;;;23.88;100.00
10881;BME280;5493;48.884;8.338;2022-08-19T01:22:47;99804.50;;;23.96;100.00
10881;BME280;5493;48.884;8.338;2022-08-19T01:25:14;99808.97;;;23.75;100.00
10881;BME280;5493;48.884;8.338;2022-08-19T01:27:44;99819.44;;;23.34;100.00
10881;BME280;5493;48.884;8.338;2022-08-19T01:30:12;99817.50;;;23.34;100.00
10881;BME280;5493;48.884;8.338;2022-08-19T01:32:39;99812.81;;;23.35;100.00
10881;BME280;5493;48.884;8.338;2022-08-19T01:35:06;99813.09;;;23.56;100.00
10881;BME280;5493;48.884;8.338;2022-08-19T01:37:42;99814.78;;;23.74;100.00
10881;BME280;5493;48.884;8.338;2022-08-19T01:40:11;99814.50;;;23.84;100.00
10881;BME280;5493;48.884;8.338;2022-08-19T01:42:38;99807.53;;;23.78;100.00
10881;BME280;5493;48.884;8.338;2022-08-19T01:45:06;99793.13;;;23.81;100.00
10881;BME280;5493;48.884;8.338;2022-08-19T01:47:34;99803.31;;;23.80;100.00
10881;BME280;5493;48.884;8.338;2022-08-19T01:50:01;99802.03;;;23.78;100.00
10881;BME280;5493;48.884;8.338;2022-08-19T01:52:27;99812.91;;;23.83;100.00
10881;BME280;5493;48.884;8.338;2022-08-19T01:54:54;99803.78;;;23.74;100.00
10881;BME280;5493;48.884;8.338;2022-08-19T01:57:22;99809.56;;;23.64;100.00
10881;BME280;5493;48.884;8.338;2022-08-19T01:59:49;99812.78;;;23.57;100.00
10881;BME280;5493;48.884;8.338;2022-08-19T02:02:16;99809.31;;;23.43;100.00
10881;BME280;5493;48.884;8.338;2022-08-19T02:04:42;99813.97;;;23.65;100.00
10881;BME280;5493;48.884;8.338;2022-08-19T02:07:11;99808.47;;;23.65;100.00
10881;BME280;5493;48.884;8.338;2022-08-19T02:09:37;99813.44;;;23.63;100.00
10881;BME280;5493;48.884;8.338;2022-08-19T02:12:05;99813.31;;;23.68;100.00
10881;BME280;5493;48.884;8.338;2022-08-19T02:14:34;99815.59;;;23.66;100.00
10881;BME280;5493;48.884;8.338;2022-08-19T02:17:01;99820.28;;;23.65;100.00
10881;BME280;5493;48.884;8.338;2022-08-19T02:19:28;99816.72;;;23.65;100.00
10881;BME280;5493;48.884;8.338;2022-08-19T02:21:57;99810.63;;;23.45;100.00
10881;BME280;5493;48.884;8.338;2022-08-19T02:24:24;99806.00;;;23.55;100.00
10881;BME280;5493;48.884;8.338;2022-08-19T02:26:51;99813.78;;;23.61;100.00
10881;BME280;5493;48.884;8.338;2022-08-19T02:29:18;99813.78;;;23.61;100.00
10881;BME280;5493;48.884;8.338;2022-08-19T02:31:46;99821.09;;;23.66;100.00
10881;BME280;5493;48.884;8.338;2022-08-19T02:34:12;99810.53;;;23.59;100.00
10881;BME280;5493;48.884;8.338;2022-08-19T02:36:39;99814.72;;;23.57;100.00
10881;BME280;5493;48.884;8.338;2022-08-19T02:39:05;99809.03;;;23.53;100.00
10881;BME280;5493;48.884;8.338;2022-08-19T02:41:32;99814.19;;;23.24;100.00
10881;BME280;5493;48.884;8.338;2022-08-19T02:44:01;99806.00;;;23.55;100.00
10881;BME280;5493;48.884;8.338;2022-08-19T02:46:30;99807.94;;;23.54;100.00
10881;BME280;5493;48.884;8.338;2022-08-19T02:49:02;99803.38;;;23.49;100.00
10881;BME280;5493;48.884;8.338;2022-08-19T02:51:34;99806.38;;;23.39;100.00
10881;BME280;5493;48.884;8.338;2022-08-19T02:54:01;99801.56;;;23.45;100.00
10881;BME280;5493;48.884;8.338;2022-08-19T02:56:28;99805.19;;;23.54;100.00
10881;BME280;5493;48.884;8.338;2022-08-19T02:58:56;99809.41;;;23.60;100.00
10881;BME280;5493;48.884;8.338;2022-08-19T03:01:26;99807.63;;;23.64;100.00
10881;BME280;5493;48.884;8.338;2022-08-19T03:03:54;99812.06;;;23.43;100.00
10881;BME280;5493;48.884;8.338;2022-08-19T03:06:22;99819.56;;;23.51;100.00
10881;BME280;5493;48.884;8.338;2022-08-19T03:08:49;99826.38;;;23.53;100.00
10881;BME280;5493;48.884;8.338;2022-08-19T03:11:17;99831.81;;;23.45;100.00
10881;BME280;5493;48.884;8.338;2022-08-19T03:13:45;99829.63;;;23.33;100.00
10881;BME280;5493;48.884;8.338;2022-08-19T03:16:14;99830.94;;;23.36;100.00
10881;BME280;5493;48.884;8.338;2022-08-19T03:18:41;99842.84;;;23.45;100.00
10881;BME280;5493;48.884;8.338;2022-08-19T03:21:08;99833.88;;;23.39;100.00
10881;BME280;5493;48.884;8.338;2022-08-19T03:23:36;99831.66;;;23.41;100.00
10881;BME280;5493;48.884;8.338;2022-08-19T03:26:03;99829.78;;;23.28;100.00
10881;BME280;5493;48.884;8.338;2022-08-19T03:28:31;99833.78;;;23.22;100.00
10881;BME280;5493;48.884;8.338;2022-08-19T03:31:00;99832.97;;;23.22;100.00
10881;BME280;5493;48.884;8.338;2022-08-19T03:33:28;99838.50;;;23.30;100.00
10881;BME280;5493;48.884;8.338;2022-08-19T03:36:04;99840.63;;;23.33;100.00
10881;BME280;5493;48.884;8.338;2022-08-19T03:38:32;99846.72;;;23.22;100.00
10881;BME280;5493;48.884;8.338;2022-08-19T03:41:04;99845.72;;;23.18;100.00
10881;BME280;5493;48.884;8.338;2022-08-19T03:43:33;99840.53;;;23.16;100.00
10881;BME280;5493;48.884;8.338;2022-08-19T03:46:02;99843.34;;;23.02;100.00
10881;BME280;5493;48.884;8.338;2022-08-19T03:48:29;99850.47;;;23.03;100.00
10881;BME280;5493;48.884;8.338;2022-08-19T03:50:56;99847.41;;;23.05;100.00
10881;BME280;5493;48.884;8.338;2022-08-19T03:53:24;99842.63;;;23.19;100.00
10881;BME280;5493;48.884;8.338;2022-08-19T03:55:51;99837.09;;;23.11;100.00
10881;BME280;5493;48.884;8.338;2022-08-19T03:58:19;99846.72;;;22.99;100.00
10881;BME280;5493;48.884;8.338;2022-08-19T04:00:46;99841.66;;;22.93;100.00
10881;BME280;5493;48.884;8.338;2022-08-19T04:03:12;99849.47;;;22.99;100.00
10881;BME280;5493;48.884;8.338;2022-08-19T04:05:39;99847.28;;;22.88;100.00
10881;BME280;5493;48.884;8.338;2022-08-19T04:08:05;99858.94;;;22.93;100.00
10881;BME280;5493;48.884;8.338;2022-08-19T04:10:35;99853.41;;;22.85;100.00
10881;BME280;5493;48.884;8.338;2022-08-19T04:13:02;99851.72;;;22.97;100.00
10881;BME280;5493;48.884;8.338;2022-08-19T04:15:32;99861.03;;;22.88;100.00
10881;BME280;5493;48.884;8.338;2022-08-19T04:18:04;99855.72;;;22.91;100.00
10881;BME280;5493;48.884;8.338;2022-08-19T04:20:33;99864.41;;;23.07;100.00
10881;BME280;5493;48.884;8.338;2022-08-19T04:22:59;99865.03;;;23.04;100.00
10881;BME280;5493;48.884;8.338;2022-08-19T04:25:26;99869.84;;;22.98;100.00
10881;BME280;5493;48.884;8.338;2022-08-19T04:27:52;99864.41;;;23.07;100.00
10881;BME280;5493;48.884;8.338;2022-08-19T04:30:19;99853.22;;;23.03;100.00
10881;BME280;5493;48.884;8.338;2022-08-19T04:32:49;99857.34;;;23.15;100.00
10881;BME280;5493;48.884;8.338;2022-08-19T04:35:15;99852.28;;;23.08;100.00
10881;BME280;5493;48.884;8.338;2022-08-19T04:37:42;99852.63;;;23.15;100.00
10881;BME280;5493;48.884;8.338;2022-08-19T04:40:09;99859.16;;;22.97;100.00
10881;BME280;5493;48.884;8.338;2022-08-19T04:42:53;99869.66;;;22.95;100.00
10881;BME280;5493;48.884;8.338;2022-08-19T04:45:20;99866.03;;;23.08;100.00
10881;BME280;5493;48.884;8.338;2022-08-19T04:47:48;99865.69;;;22.87;100.00
10881;BME280;5493;48.884;8.338;2022-08-19T04:50:15;99860.34;;;23.04;100.00
10881;BME280;5493;48.884;8.338;2022-08-19T04:52:41;99872.41;;;23.17;100.00
10881;BME280;5493;48.884;8.338;2022-08-19T04:55:09;99877.03;;;23.08;100.00
10881;BME280;5493;48.884;8.338;2022-08-19T04:57:36;99879.09;;;23.25;100.00
10881;BME280;5493;48.884;8.338;2022-08-19T05:00:07;99885.09;;;23.27;100.00
10881;BME280;5493;48.884;8.338;2022-08-19T05:02:34;99879.91;;;23.25;100.00
10881;BME280;5493;48.884;8.338;2022-08-19T05:05:03;99880.94;;;23.29;100.00
10881;BME280;5493;48.884;8.338;2022-08-19T05:07:29;99884.34;;;23.35;100.00
10881;BME280;5493;48.884;8.338;2022-08-19T05:09:56;99878.22;;;23.38;100.00
10881;BME280;5493;48.884;8.338;2022-08-19T05:12:22;99877.56;;;23.41;100.00
10881;BME280;5493;48.884;8.338;2022-08-19T05:14:49;99869.66;;;23.39;100.00
10881;BME280;5493;48.884;8.338;2022-08-19T05:17:17;99889.28;;;23.24;100.00
10881;BME280;5493;48.884;8.338;2022-08-19T05:19:43;99884.44;;;23.43;100.00
10881;BME280;5493;48.884;8.338;2022-08-19T05:22:31;99894.72;;;23.38;100.00
10881;BME280;5493;48.884;8.338;2022-08-19T05:25:03;99895.88;;;23.15;100.00
10881;BME280;5493;48.884;8.338;2022-08-19T05:27:30;99901.97;;;23.12;100.00
10881;BME280;5493;48.884;8.338;2022-08-19T05:29:57;99908.41;;;23.07;100.00
10881;BME280;5493;48.884;8.338;2022-08-19T05:32:24;99920.00;;;23.18;100.00
10881;BME280;5493;48.884;8.338;2022-08-19T05:34:51;99919.28;;;23.12;100.00
10881;BME280;5493;48.884;8.338;2022-08-19T05:37:17;99921.41;;;23.15;100.00
10881;BME280;5493;48.884;8.338;2022-08-19T05:39:45;99918.34;;;23.17;100.00
10881;BME280;5493;48.884;8.338;2022-08-19T05:42:12;99933.03;;;23.12;100.00
10881;BME280;5493;48.884;8.338;2022-08-19T05:44:41;99931.63;;;23.15;100.00
10881;BME280;5493;48.884;8.338;2022-08-19T05:47:10;99938.25;;;23.36;100.00
10881;BME280;5493;48.884;8.338;2022-08-19T05:49:37;99936.97;;;23.20;100.00
10881;BME280;5493;48.884;8.338;2022-08-19T05:52:04;99939.00;;;23.28;100.00
10881;BME280;5493;48.884;8.338;2022-08-19T05:54:32;99942.31;;;23.38;100.00
10881;BME280;5493;48.884;8.338;2022-08-19T05:57:01;99944.00;;;23.26;100.00
10881;BME280;5493;48.884;8.338;2022-08-19T05:59:28;99948.69;;;23.25;100.00
10881;BME280;5493;48.884;8.338;2022-08-19T06:01:54;99947.44;;;23.31;100.00
10881;BME280;5493;48.884;8.338;2022-08-19T06:04:23;99945.16;;;23.47;100.00
10881;BME280;5493;48.884;8.338;2022-08-19T06:06:52;99946.38;;;23.41;100.00
10881;BME280;5493;48.884;8.338;2022-08-19T06:09:19;99939.38;;;23.35;100.00
10881;BME280;5493;48.884;8.338;2022-08-19T06:11:48;99942.00;;;23.18;100.00
10881;BME280;5493;48.884;8.338;2022-08-19T06:14:22;99942.88;;;23.27;100.00
10881;BME280;5493;48.884;8.338;2022-08-19T06:16:49;99948.38;;;23.27;100.00
10881;BME280;5493;48.884;8.338;2022-08-19T06:19:18;99939.56;;;23.38;100.00
10881;BME280;5493;48.884;8.338;2022-08-19T06:21:48;99935.03;;;23.56;100.00
10881;BME280;5493;48.884;8.338;2022-08-19T06:24:16;99941.41;;;23.65;100.00
10881;BME280;5493;48.884;8.338;2022-08-19T06:26:45;99946.72;;;23.62;100.00
10881;BME280;5493;48.884;8.338;2022-08-19T06:29:13;99950.97;;;23.45;100.00
10881;BME280;5493;48.884;8.338;2022-08-19T06:31:43;99950.72;;;23.56;100.00
10881;BME280;5493;48.884;8.338;2022-08-19T06:34:11;99958.75;;;23.43;100.00
10881;BME280;5493;48.884;8.338;2022-08-19T06:36:40;99962.31;;;23.44;100.00
10881;BME280;5493;48.884;8.338;2022-08-19T06:39:10;99962.44;;;23.61;100.00
10881;BME280;5493;48.884;8.338;2022-08-19T06:41:39;99969.75;;;23.43;100.00
10881;BME280;5493;48.884;8.338;2022-08-19T06:44:06;99960.50;;;23.62;100.00
10881;BME280;5493;48.884;8.338;2022-08-19T06:46:33;99966.59;;;23.59;100.00
10881;BME280;5493;48.884;8.338;2022-08-19T06:49:02;99963.63;;;23.46;100.00
10881;BME280;5493;48.884;8.338;2022-08-19T06:51:29;99960.13;;;23.55;100.00
10881;BME280;5493;48.884;8.338;2022-08-19T06:53:58;99965.63;;;23.41;100.00
10881;BME280;5493;48.884;8.338;2022-08-19T06:56:26;99966.59;;;23.36;100.00
10881;BME280;5493;48.884;8.338;2022-08-19T06:58:56;99967.75;;;23.58;100.00
10881;BME280;5493;48.884;8.338;2022-08-19T07:01:22;99965.56;;;23.68;100.00
10881;BME280;5493;48.884;8.338;2022-08-19T07:03:49;99968.78;;;23.70;100.00
10881;BME280;5493;48.884;8.338;2022-08-19T07:06:18;99969.41;;;23.67;100.00
10881;BME280;5493;48.884;8.338;2022-08-19T07:08:46;99968.97;;;23.74;100.00
10881;BME280;5493;48.884;8.338;2022-08-19T07:11:16;99966.75;;;23.84;100.00
10881;BME280;5493;48.884;8.338;2022-08-19T07:13:45;99965.94;;;23.84;100.00
10881;BME280;5493;48.884;8.338;2022-08-19T07:16:15;99958.97;;;24.09;100.00
10881;BME280;5493;48.884;8.338;2022-08-19T07:18:42;99956.66;;;24.02;100.00
10881;BME280;5493;48.884;8.338;2022-08-19T07:21:11;99953.06;;;24.24;100.00
10881;BME280;5493;48.884;8.338;2022-08-19T07:23:39;99956.81;;;24.28;100.00
10881;BME280;5493;48.884;8.338;2022-08-19T07:26:06;99954.22;;;24.23;100.00
10881;BME280;5493;48.884;8.338;2022-08-19T07:28:33;99951.34;;;24.36;100.00
10881;BME280;5493;48.884;8.338;2022-08-19T07:31:00;99955.81;;;24.24;100.00
10881;BME280;5493;48.884;8.338;2022-08-19T07:33:28;99952.16;;;24.37;100.00
10881;BME280;5493;48.884;8.338;2022-08-19T07:35:57;99950.91;;;24.52;100.00
10881;BME280;5493;48.884;8.338;2022-08-19T07:38:24;99945.91;;;24.62;100.00
10881;BME280;5493;48.884;8.338;2022-08-19T07:40:52;99949.13;;;24.64;100.00
10881;BME280;5493;48.884;8.338;2022-08-19T07:43:19;99953.72;;;24.77;100.00
10881;BME280;5493;48.884;8.338;2022-08-19T07:45:48;99949.50;;;24.80;100.00
10881;BME280;5493;48.884;8.338;2022-08-19T07:48:14;99951.03;;;24.94;100.00
10881;BME280;5493;48.884;8.338;2022-08-19T07:50:41;99948.56;;;24.93;100.00
10881;BME280;5493;48.884;8.338;2022-08-19T07:53:07;99945.00;;;25.18;100.00
10881;BME280;5493;48.884;8.338;2022-08-19T07:55:34;99944.06;;;25.06;100.00
10881;BME280;5493;48.884;8.338;2022-08-19T07:58:02;99941.13;;;25.36;100.00
10881;BME280;5493;48.884;8.338;2022-08-19T08:00:30;99946.66;;;25.19;100.00
10881;BME280;5493;48.884;8.338;2022-08-19T08:02:56;99948.13;;;25.17;100.00
10881;BME280;5493;48.884;8.338;2022-08-19T08:05:23;99951.50;;;25.22;100.00
10881;BME280;5493;48.884;8.338;2022-08-19T08:08:07;99941.63;;;25.38;100.00
10881;BME280;5493;48.884;8.338;2022-08-19T08:10:51;99947.63;;;25.23;100.00
10881;BME280;5493;48.884;8.338;2022-08-19T08:13:19;99942.25;;;25.18;100.00
10881;BME280;5493;48.884;8.338;2022-08-19T08:15:46;99943.91;;;25.28;100.00
10881;BME280;5493;48.884;8.338;2022-08-19T08:18:12;99935.41;;;25.76;100.00
10881;BME280;5493;48.884;8.338;2022-08-19T08:20:39;99937.91;;;26.44;100.00
10881;BME280;5493;48.884;8.338;2022-08-19T08:23:05;99929.75;;;26.77;100.00
10881;BME280;5493;48.884;8.338;2022-08-19T08:25:52;99933.78;;;26.59;100.00
10881;BME280;5493;48.884;8.338;2022-08-19T08:28:22;99929.94;;;27.22;100.00
10881;BME280;5493;48.884;8.338;2022-08-19T08:30:50;99925.53;;;27.21;100.00
10881;BME280;5493;48.884;8.338;2022-08-19T08:33:18;99934.78;;;27.46;100.00
10881;BME280;5493;48.884;8.338;2022-08-19T08:35:46;99930.47;;;27.36;100.00
10881;BME280;5493;48.884;8.338;2022-08-19T08:38:13;99939.44;;;27.87;100.00
10881;BME280;5493;48.884;8.338;2022-08-19T08:40:44;99929.28;;;27.91;100.00
10881;BME280;5493;48.884;8.338;2022-08-19T08:43:21;99932.00;;;28.48;100.00
10881;BME280;5493;48.884;8.338;2022-08-19T08:45:53;99935.59;;;28.61;100.00
10881;BME280;5493;48.884;8.338;2022-08-19T08:48:24;99938.56;;;27.42;100.00
10881;BME280;5493;48.884;8.338;2022-08-19T08:50:54;99932.22;;;28.19;100.00
10881;BME280;5493;48.884;8.338;2022-08-19T08:53:22;99927.72;;;28.14;100.00
10881;BME280;5493;48.884;8.338;2022-08-19T08:55:49;99934.38;;;28.01;100.00
10881;BME280;5493;48.884;8.338;2022-08-19T08:58:24;99930.25;;;28.56;100.00
10881;BME280;5493;48.884;8.338;2022-08-19T09:00:52;99937.75;;;28.92;100.00
10881;BME280;5493;48.884;8.338;2022-08-19T09:03:20;99926.25;;;29.17;100.00
10881;BME280;5493;48.884;8.338;2022-08-19T09:05:55;99931.56;;;29.22;100.00
10881;BME280;5493;48.884;8.338;2022-08-19T09:08:30;99944.22;;;29.48;100.00
10881;BME280;5493;48.884;8.338;2022-08-19T09:11:03;99929.75;;;29.02;100.00
10881;BME280;5493;48.884;8.338;2022-08-19T09:13:38;99931.38;;;29.03;100.00
10881;BME280;5493;48.884;8.338;2022-08-19T09:16:10;99929.34;;;29.28;100.00
10881;BME280;5493;48.884;8.338;2022-08-19T09:18:40;99927.88;;;29.18;100.00
10881;BME280;5493;48.884;8.338;2022-08-19T09:21:07;99941.38;;;29.60;100.00
10881;BME280;5493;48.884;8.338;2022-08-19T09:23:34;99944.25;;;29.36;100.00
10881;BME280;5493;48.884;8.338;2022-08-19T09:26:01;99939.56;;;29.12;100.00
10881;BME280;5493;48.884;8.338;2022-08-19T09:28:27;99936.91;;;29.15;100.00
10881;BME280;5493;48.884;8.338;2022-08-19T09:30:55;99927.38;;;29.56;100.00
10881;BME280;5493;48.884;8.338;2022-08-19T09:33:22;99931.53;;;28.82;100.00
10881;BME280;5493;48.884;8.338;2022-08-19T09:35:48;99924.59;;;29.28;100.00
10881;BME280;5493;48.884;8.338;2022-08-19T09:38:15;99924.78;;;30.38;100.00
10881;BME280;5493;48.884;8.338;2022-08-19T09:40:41;99923.44;;;30.32;100.00
10881;BME280;5493;48.884;8.338;2022-08-19T09:43:08;99931.91;;;29.49;100.00
10881;BME280;5493;48.884;8.338;2022-08-19T09:45:35;99919.03;;;30.47;100.00
10881;BME280;5493;48.884;8.338;2022-08-19T09:48:04;99923.97;;;31.04;100.00
10881;BME280;5493;48.884;8.338;2022-08-19T09:50:31;99929.34;;;30.97;100.00
10881;BME280;5493;48.884;8.338;2022-08-19T09:53:00;99917.16;;;30.19;100.00
10881;BME280;5493;48.884;8.338;2022-08-19T09:55:27;99933.41;;;30.02;100.00
10881;BME280;5493;48.884;8.338;2022-08-19T09:57:53;99929.44;;;29.87;100.00
10881;BME280;5493;48.884;8.338;2022-08-19T10:00:20;99936.69;;;29.48;100.00
10881;BME280;5493;48.884;8.338;2022-08-19T10:02:46;99927.56;;;30.07;100.00
10881;BME280;5493;48.884;8.338;2022-08-19T10:05:14;99932.28;;;30.69;100.00
10881;BME280;5493;48.884;8.338;2022-08-19T10:07:58;99940.50;;;30.31;100.00
10881;BME280;5493;48.884;8.338;2022-08-19T10:10:26;99938.41;;;30.94;100.00
10881;BME280;5493;48.884;8.338;2022-08-19T10:12:52;99941.13;;;30.55;100.00
10881;BME280;5493;48.884;8.338;2022-08-19T10:15:19;99932.75;;;29.93;100.00
10881;BME280;5493;48.884;8.338;2022-08-19T10:17:46;99936.28;;;29.77;100.00
10881;BME280;5493;48.884;8.338;2022-08-19T10:20:12;99931.34;;;30.96;100.00
10881;BME280;5493;48.884;8.338;2022-08-19T10:22:40;99932.34;;;30.88;100.00
10881;BME280;5493;48.884;8.338;2022-08-19T10:25:08;99936.72;;;31.62;100.00
10881;BME280;5493;48.884;8.338;2022-08-19T10:27:35;99932.66;;;32.21;99.56
10881;BME280;5493;48.884;8.338;2022-08-19T10:30:02;99924.69;;;31.78;98.78
10881;BME280;5493;48.884;8.338;2022-08-19T10:32:30;99935.84;;;31.58;100.00
10881;BME280;5493;48.884;8.338;2022-08-19T10:34:56;99926.09;;;31.49;100.00
10881;BME280;5493;48.884;8.338;2022-08-19T10:37:23;99918.00;;;32.05;100.00
10881;BME280;5493;48.884;8.338;2022-08-19T10:39:51;99920.09;;;31.47;100.00
10881;BME280;5493;48.884;8.338;2022-08-19T10:42:18;99920.59;;;31.33;100.00
10881;BME280;5493;48.884;8.338;2022-08-19T10:44:46;99917.94;;;31.79;100.00
10881;BME280;5493;48.884;8.338;2022-08-19T10:47:13;99912.63;;;32.15;99.95
10881;BME280;5493;48.884;8.338;2022-08-19T10:49:39;99915.16;;;32.01;99.90
10881;BME280;5493;48.884;8.338;2022-08-19T10:52:20;99903.31;;;31.85;99.79
10881;BME280;5493;48.884;8.338;2022-08-19T10:55:05;99904.09;;;32.31;96.32
10881;BME280;5493;48.884;8.338;2022-08-19T10:57:49;99898.53;;;32.57;97.18
10881;BME280;5493;48.884;8.338;2022-08-19T11:00:18;99903.69;;;32.29;96.32
10881;BME280;5493;48.884;8.338;2022-08-19T11:02:45;99895.97;;;32.19;98.76
10881;BME280;5493;48.884;8.338;2022-08-19T11:05:12;99887.25;;;32.50;97.18
10881;BME280;5493;48.884;8.338;2022-08-19T11:07:40;99895.78;;;32.08;95.87
10881;BME280;5493;48.884;8.338;2022-08-19T11:10:11;99895.28;;;32.52;95.63
10881;BME280;5493;48.884;8.338;2022-08-19T11:12:40;99903.38;;;31.89;97.51
10881;BME280;5493;48.884;8.338;2022-08-19T11:15:08;99889.50;;;31.31;99.76
10881;BME280;5493;48.884;8.338;2022-08-19T11:17:36;99894.13;;;31.04;99.69
10881;BME280;5493;48.884;8.338;2022-08-19T11:20:06;99890.59;;;31.27;100.00
10881;BME280;5493;48.884;8.338;2022-08-19T11:22:33;99884.09;;;30.65;100.00
10881;BME280;5493;48.884;8.338;2022-08-19T11:25:00;99883.75;;;30.51;100.00
10881;BME280;5493;48.884;8.338;2022-08-19T11:27:28;99874.00;;;31.11;100.00
10881;BME280;5493;48.884;8.338;2022-08-19T11:29:55;99870.53;;;31.79;98.45
10881;BME280;5493;48.884;8.338;2022-08-19T11:32:22;99870.22;;;32.06;99.40
10881;BME280;5493;48.884;8.338;2022-08-19T11:34:48;99869.78;;;31.82;99.06
10881;BME280;5493;48.884;8.338;2022-08-19T11:37:15;99870.44;;;31.33;98.54
10881;BME280;5493;48.884;8.338;2022-08-19T11:39:41;99873.56;;;31.51;99.30
10881;BME280;5493;48.884;8.338;2022-08-19T11:42:08;99879.13;;;30.74;100.00
10881;BME280;5493;48.884;8.338;2022-08-19T11:44:50;99875.22;;;30.59;100.00
10881;BME280;5493;48.884;8.338;2022-08-19T11:47:17;99875.25;;;30.44;100.00
10881;BME280;5493;48.884;8.338;2022-08-19T11:49:45;99874.84;;;29.51;100.00
10881;BME280;5493;48.884;8.338;2022-08-19T11:52:11;99873.66;;;29.37;100.00
10881;BME280;5493;48.884;8.338;2022-08-19T11:54:38;99878.38;;;29.79;100.00
10881;BME280;5493;48.884;8.338;2022-08-19T11:57:04;99878.72;;;29.78;100.00
10881;BME280;5493;48.884;8.338;2022-08-19T11:59:31;99872.53;;;30.63;100.00
10881;BME280;5493;48.884;8.338;2022-08-19T12:01:59;99870.91;;;30.62;100.00
10881;BME280;5493;48.884;8.338;2022-08-19T12:04:25;99863.34;;;30.97;100.00
10881;BME280;5493;48.884;8.338;2022-08-19T12:06:52;99873.25;;;31.14;100.00
10881;BME280;5493;48.884;8.338;2022-08-19T12:09:18;99884.06;;;31.38;100.00
10881;BME280;5493;48.884;8.338;2022-08-19T12:11:45;99879.34;;;30.85;100.00
10881;BME280;5493;48.884;8.338;2022-08-19T12:14:13;99883.44;;;31.06;100.00
10881;BME280;5493;48.884;8.338;2022-08-19T12:16:40;99877.63;;;30.96;100.00
10881;BME280;5493;48.884;8.338;2022-08-19T12:19:08;99882.72;;;30.74;100.00
10881;BME280;5493;48.884;8.338;2022-08-19T12:21:35;99881.72;;;30.48;100.00
10881;BME280;5493;48.884;8.338;2022-08-19T12:24:03;99875.94;;;30.56;100.00
10881;BME280;5493;48.884;8.338;2022-08-19T12:26:30;99878.69;;;29.90;100.00
10881;BME280;5493;48.884;8.338;2022-08-19T12:28:58;99878.53;;;29.71;100.00
10881;BME280;5493;48.884;8.338;2022-08-19T12:31:25;99883.00;;;29.44;100.00
10881;BME280;5493;48.884;8.338;2022-08-19T12:33:53;99886.91;;;29.15;100.00
10881;BME280;5493;48.884;8.338;2022-08-19T12:36:21;99890.47;;;29.28;100.00
10881;BME280;5493;48.884;8.338;2022-08-19T12:38:48;99891.03;;;29.21;100.00
10881;BME280;5493;48.884;8.338;2022-08-19T12:41:16;99891.63;;;29.27;100.00
10881;BME280;5493;48.884;8.338;2022-08-19T12:43:43;99887.69;;;28.88;100.00
10881;BME280;5493;48.884;8.338;2022-08-19T12:46:11;99880.44;;;28.71;100.00
10881;BME280;5493;48.884;8.338;2022-08-19T12:48:38;99887.34;;;28.65;100.00
10881;BME280;5493;48.884;8.338;2022-08-19T12:51:08;99892.25;;;28.68;100.00
10881;BME280;5493;48.884;8.338;2022-08-19T12:53:36;99886.84;;;29.00;100.00
10881;BME280;5493;48.884;8.338;2022-08-19T12:56:03;99894.81;;;29.01;100.00
10881;BME280;5493;48.884;8.338;2022-08-19T12:58:30;99887.69;;;28.88;100.00
10881;BME280;5493;48.884;8.338;2022-08-19T13:00:59;99888.91;;;29.03;100.00
10881;BME280;5493;48.884;8.338;2022-08-19T13:03:26;99888.94;;;28.91;100.00
10881;BME280;5493;48.884;8.338;2022-08-19T13:05:54;99878.53;;;29.71;100.00